createdAt,value
2018-05-02T00:01:43.655Z,19.32
2018-05-02T00:04:12.261Z,19.15
2018-05-02T00:06:40.914Z,19.03
2018-05-02T00:09:09.298Z,18.95
2018-05-02T00:11:38.072Z,19.06
2018-05-02T00:14:06.896Z,18.97
2018-05-02T00:16:35.351Z,19.13
2018-05-02T00:19:03.983Z,19.12
2018-05-02T00:21:32.431Z,19.06
2018-05-02T00:24:01.113Z,19.18
2018-05-02T00:26:29.706Z,18.87
2018-05-02T00:28:58.152Z,18.82
2018-05-02T00:31:26.660Z,18.76
2018-05-02T00:33:55.566Z,18.86
2018-05-02T00:36:24.322Z,18.81
2018-05-02T00:38:52.857Z,18.77
2018-05-02T00:41:21.492Z,18.72
2018-05-02T00:43:49.976Z,18.45
2018-05-02T00:46:19.062Z,18.65
2018-05-02T00:48:59.793Z,18.67
2018-05-02T00:51:28.326Z,18.74
2018-05-02T00:53:56.838Z,18.87
2018-05-02T00:56:25.399Z,18.96
2018-05-02T00:58:54.063Z,18.37
2018-05-02T01:01:22.615Z,17.86
2018-05-02T01:03:51.144Z,18.20
2018-05-02T01:06:19.603Z,18.17
2018-05-02T01:08:48.012Z,18.43
2018-05-02T01:11:16.557Z,18.57
2018-05-02T01:13:44.889Z,18.63
2018-05-02T01:16:13.841Z,18.89
2018-05-02T01:18:42.442Z,18.89
2018-05-02T01:21:11.202Z,18.57
2018-05-02T01:23:39.732Z,18.64
2018-05-02T01:26:08.392Z,18.42
2018-05-02T01:28:36.846Z,18.40
2018-05-02T01:31:05.433Z,18.22
2018-05-02T01:33:33.906Z,18.35
2018-05-02T01:36:02.505Z,18.45
2018-05-02T01:38:31.178Z,18.44
2018-05-02T01:40:59.606Z,18.49
2018-05-02T01:43:28.342Z,18.23
2018-05-02T01:45:56.373Z,18.29
2018-05-02T01:48:24.773Z,18.36
2018-05-02T01:50:53.273Z,18.48
2018-05-02T01:53:22.151Z,18.29
2018-05-02T01:55:50.949Z,18.22
2018-05-02T01:58:19.367Z,18.14
2018-05-02T02:00:47.810Z,18.16
2018-05-02T02:03:16.108Z,18.13
2018-05-02T02:05:44.786Z,18.23
2018-05-02T02:08:13.179Z,18.20
2018-05-02T02:10:41.801Z,18.15
2018-05-02T02:13:10.530Z,18.23
2018-05-02T02:15:39.101Z,18.25
2018-05-02T02:18:07.898Z,18.20
2018-05-02T02:20:36.370Z,18.32
2018-05-02T02:23:04.954Z,18.19
2018-05-02T02:25:33.534Z,18.12
2018-05-02T02:28:02.117Z,18.21
2018-05-02T02:30:30.597Z,18.19
2018-05-02T02:32:59.167Z,18.05
2018-05-02T02:35:27.799Z,18.08
2018-05-02T02:37:56.456Z,18.04
2018-05-02T02:40:25.035Z,18.00
2018-05-02T02:42:53.650Z,18.00
2018-05-02T02:45:22.424Z,18.04
2018-05-02T02:47:51.188Z,18.18
2018-05-02T02:50:20.025Z,17.97
2018-05-02T02:52:48.717Z,17.90
2018-05-02T02:55:17.607Z,17.80
2018-05-02T02:57:46.056Z,17.89
2018-05-02T03:00:14.513Z,17.83
2018-05-02T03:02:43.115Z,17.74
2018-05-02T03:05:11.891Z,17.86
2018-05-02T03:07:40.645Z,17.83
2018-05-02T03:10:09.074Z,17.79
2018-05-02T03:12:37.639Z,17.81
2018-05-02T03:15:06.135Z,17.66
2018-05-02T03:17:34.807Z,17.68
2018-05-02T03:20:03.789Z,17.79
2018-05-02T03:22:32.280Z,17.73
2018-05-02T03:25:00.967Z,17.60
2018-05-02T03:27:29.374Z,17.67
2018-05-02T03:29:57.935Z,17.65
2018-05-02T03:32:26.603Z,17.88
2018-05-02T03:34:54.933Z,17.67
2018-05-02T03:37:23.771Z,17.72
2018-05-02T03:39:52.442Z,17.96
2018-05-02T03:42:21.058Z,17.69
2018-05-02T03:44:49.737Z,17.63
2018-05-02T03:47:18.201Z,17.65
2018-05-02T03:49:47.889Z,17.81
2018-05-02T03:52:16.197Z,17.89
2018-05-02T03:54:44.776Z,17.84
2018-05-02T03:57:13.361Z,17.71
2018-05-02T03:59:53.782Z,17.65
2018-05-02T04:02:34.169Z,17.81
2018-05-02T04:05:15.386Z,18.01
2018-05-02T04:07:44.188Z,18.11
2018-05-02T04:10:12.665Z,18.14
2018-05-02T04:12:41.211Z,18.19
2018-05-02T04:15:10.122Z,18.11
2018-05-02T04:17:38.768Z,18.05
2018-05-02T04:20:07.557Z,18.43
2018-05-02T04:22:36.562Z,18.58
2018-05-02T04:25:04.995Z,18.73
2018-05-02T04:27:33.434Z,19.01
2018-05-02T04:30:02.207Z,18.43
2018-05-02T04:32:30.787Z,18.40
2018-05-02T04:34:59.210Z,17.72
2018-05-02T04:37:27.876Z,18.09
2018-05-02T04:39:56.335Z,18.40
2018-05-02T04:42:24.825Z,18.42
2018-05-02T04:44:53.609Z,18.15
2018-05-02T04:47:22.390Z,17.35
2018-05-02T04:49:50.924Z,16.78
2018-05-02T04:52:19.471Z,15.77
2018-05-02T04:54:48.238Z,16.22
2018-05-02T04:57:16.830Z,16.80
2018-05-02T04:59:45.332Z,16.52
2018-05-02T05:02:13.987Z,17.05
2018-05-02T05:04:42.589Z,17.18
2018-05-02T05:07:11.292Z,16.48
2018-05-02T05:09:39.310Z,16.29
2018-05-02T05:12:07.359Z,16.14
2018-05-02T05:14:35.416Z,16.29
2018-05-02T05:17:03.471Z,16.87
2018-05-02T05:19:31.582Z,15.75
2018-05-02T05:22:00.021Z,15.64
2018-05-02T05:24:28.030Z,16.24
2018-05-02T05:26:56.036Z,16.24
2018-05-02T05:29:24.045Z,16.15
2018-05-02T05:31:52.080Z,16.37
2018-05-02T05:34:20.152Z,16.74
2018-05-02T05:36:48.195Z,17.12
2018-05-02T05:39:16.213Z,17.26
2018-05-02T05:41:44.213Z,17.46
2018-05-02T05:44:12.210Z,18.03
2018-05-02T05:46:40.465Z,18.38
2018-05-02T05:49:08.551Z,17.99
2018-05-02T05:51:36.808Z,17.96
2018-05-02T05:54:05.089Z,18.36
2018-05-02T05:56:33.057Z,18.98
2018-05-02T05:59:01.173Z,19.14
2018-05-02T06:01:29.183Z,19.92
2018-05-02T06:03:57.156Z,20.52
2018-05-02T06:06:25.166Z,20.49
2018-05-02T06:08:53.203Z,19.85
2018-05-02T06:11:21.211Z,20.95
2018-05-02T06:13:49.296Z,20.92
2018-05-02T06:16:17.366Z,20.81
2018-05-02T06:18:45.445Z,21.24
2018-05-02T06:21:13.443Z,21.86
2018-05-02T06:23:41.777Z,22.63
2018-05-02T06:26:09.838Z,21.98
2018-05-02T06:28:37.850Z,22.79
2018-05-02T06:31:05.915Z,22.77
2018-05-02T06:33:33.976Z,22.14
2018-05-02T06:36:02.180Z,22.33
2018-05-02T06:38:30.180Z,22.95
2018-05-02T06:40:58.243Z,22.72
2018-05-02T06:43:26.366Z,22.95
2018-05-02T06:45:54.436Z,22.86
2018-05-02T06:48:22.571Z,23.53
2018-05-02T06:50:50.567Z,24.03
2018-05-02T06:53:18.607Z,24.18
2018-05-02T06:55:46.687Z,24.08
2018-05-02T06:58:14.789Z,24.11
2018-05-02T07:00:43.943Z,24.67
2018-05-02T07:03:11.970Z,24.71
2018-05-02T07:05:40.021Z,25.06
2018-05-02T07:08:08.084Z,25.59
2018-05-02T07:10:36.194Z,24.87
2018-05-02T07:13:04.150Z,25.96
2018-05-02T07:15:32.214Z,24.69
2018-05-02T07:18:00.365Z,24.11
2018-05-02T07:20:28.430Z,24.57
2018-05-02T07:22:56.473Z,25.37
2018-05-02T07:25:24.728Z,26.16
2018-05-02T07:27:52.747Z,26.25
2018-05-02T07:30:20.772Z,25.51
2018-05-02T07:32:48.912Z,25.30
2018-05-02T07:35:16.991Z,25.85
2018-05-02T07:37:45.030Z,27.02
2018-05-02T07:40:13.005Z,25.88
2018-05-02T07:42:41.003Z,26.57
2018-05-02T07:45:08.975Z,26.96
2018-05-02T07:47:37.054Z,27.73
2018-05-02T07:50:05.059Z,27.67
2018-05-02T07:52:33.165Z,28.03
2018-05-02T07:55:01.102Z,27.61
2018-05-02T07:57:29.111Z,28.28
2018-05-02T07:59:57.171Z,27.40
2018-05-02T08:02:25.164Z,28.04
2018-05-02T08:04:53.151Z,29.47
2018-05-02T08:07:21.282Z,28.94
2018-05-02T08:09:49.339Z,28.37
2018-05-02T08:12:17.551Z,29.46
2018-05-02T08:14:46.387Z,30.25
2018-05-02T08:17:14.966Z,29.98
2018-05-02T08:19:43.455Z,29.95
2018-05-02T08:22:11.912Z,29.90
2018-05-02T08:24:40.224Z,29.39
2018-05-02T08:27:08.402Z,30.43
2018-05-02T08:29:36.421Z,30.80
2018-05-02T08:32:04.501Z,31.45
2018-05-02T08:34:32.536Z,30.17
2018-05-02T08:37:00.575Z,30.65
2018-05-02T08:39:28.555Z,30.34
2018-05-02T08:41:56.667Z,31.16
2018-05-02T08:44:24.759Z,31.12
2018-05-02T08:46:52.721Z,32.19
2018-05-02T08:49:20.750Z,31.00
2018-05-02T08:51:48.786Z,31.32
2018-05-02T08:54:16.905Z,31.13
2018-05-02T08:56:44.946Z,30.51
2018-05-02T08:59:12.939Z,31.53
2018-05-02T09:01:40.980Z,32.58
2018-05-02T09:04:08.971Z,31.26
2018-05-02T09:06:36.951Z,30.47
2018-05-02T09:09:05.056Z,30.91
2018-05-02T09:11:33.042Z,32.19
2018-05-02T09:14:01.059Z,32.43
2018-05-02T09:16:29.098Z,30.81
2018-05-02T09:18:57.439Z,30.90
2018-05-02T09:21:25.457Z,31.77
2018-05-02T09:23:54.112Z,31.30
2018-05-02T09:26:22.123Z,32.83
2018-05-02T09:28:50.359Z,32.31
2018-05-02T09:31:18.418Z,32.74
2018-05-02T09:33:46.389Z,33.31
2018-05-02T09:36:14.343Z,35.13
2018-05-02T09:38:42.397Z,33.91
2018-05-02T09:41:10.417Z,33.30
2018-05-02T09:43:38.476Z,34.03
2018-05-02T09:46:06.491Z,34.51
2018-05-02T09:48:34.594Z,34.57
2018-05-02T09:51:02.718Z,34.27
2018-05-02T09:53:30.862Z,32.83
2018-05-02T09:55:58.950Z,32.64
2018-05-02T09:58:26.944Z,33.39
2018-05-02T10:00:54.955Z,34.43
2018-05-02T10:03:22.977Z,32.55
2018-05-02T10:05:50.978Z,32.36
2018-05-02T10:08:19.007Z,33.96
2018-05-02T10:10:46.999Z,34.06
2018-05-02T10:13:15.123Z,33.17
2018-05-02T10:15:43.154Z,34.35
2018-05-02T10:18:11.266Z,34.71
2018-05-02T10:20:39.353Z,33.89
2018-05-02T10:23:07.366Z,34.54
2018-05-02T10:25:35.424Z,35.56
2018-05-02T10:28:03.384Z,33.81
2018-05-02T10:30:31.637Z,35.33
2018-05-02T10:32:59.661Z,35.62
2018-05-02T10:35:27.707Z,35.39
2018-05-02T10:37:55.732Z,35.60
2018-05-02T10:40:23.691Z,34.93
2018-05-02T10:42:51.755Z,34.50
2018-05-02T10:45:19.785Z,35.16
2018-05-02T10:47:47.835Z,35.01
2018-05-02T10:50:15.887Z,33.84
2018-05-02T10:52:43.923Z,33.59
2018-05-02T10:55:11.962Z,33.15
2018-05-02T10:57:39.956Z,34.79
2018-05-02T11:00:07.934Z,35.09
2018-05-02T11:02:36.061Z,34.93
2018-05-02T11:05:04.137Z,34.69
2018-05-02T11:07:32.195Z,34.81
2018-05-02T11:10:00.197Z,35.41
2018-05-02T11:12:28.313Z,35.73
2018-05-02T11:14:56.324Z,35.64
2018-05-02T11:17:24.370Z,34.79
2018-05-02T11:19:52.362Z,34.89
2018-05-02T11:22:20.375Z,33.02
2018-05-02T11:24:48.330Z,32.43
2018-05-02T11:27:16.317Z,31.62
2018-05-02T11:29:44.453Z,31.29
2018-05-02T11:32:12.937Z,31.71
2018-05-02T11:34:40.980Z,31.95
2018-05-02T11:37:08.977Z,32.08
2018-05-02T11:39:37.169Z,31.89
2018-05-02T11:42:05.183Z,31.53
2018-05-02T11:44:33.113Z,31.06
2018-05-02T11:47:01.125Z,31.54
2018-05-02T11:49:29.114Z,31.71
2018-05-02T11:51:57.113Z,32.75
2018-05-02T11:54:25.077Z,33.31
2018-05-02T11:56:53.214Z,32.54
2018-05-02T11:59:21.276Z,30.86
2018-05-02T12:01:49.288Z,31.41
2018-05-02T12:04:17.354Z,32.58
2018-05-02T12:06:45.378Z,32.69
2018-05-02T12:09:13.404Z,33.06
2018-05-02T12:11:41.353Z,33.83
2018-05-02T12:14:09.343Z,34.22
2018-05-02T12:16:37.412Z,34.31
2018-05-02T12:19:05.442Z,35.52
2018-05-02T12:21:33.574Z,34.95
2018-05-02T12:24:01.566Z,34.39
2018-05-02T12:26:29.496Z,34.06
2018-05-02T12:28:57.593Z,35.06
2018-05-02T12:31:25.609Z,33.32
2018-05-02T12:33:54.115Z,34.16
2018-05-02T12:36:22.254Z,33.18
2018-05-02T12:38:50.311Z,33.82
2018-05-02T12:41:18.284Z,34.75
2018-05-02T12:43:46.290Z,32.48
2018-05-02T12:46:14.361Z,31.48
2018-05-02T12:48:42.418Z,32.11
2018-05-02T12:51:10.484Z,31.91
2018-05-02T12:53:38.543Z,32.39
2018-05-02T12:56:06.623Z,32.39
2018-05-02T12:58:34.619Z,32.03
2018-05-02T13:01:02.817Z,31.55
2018-05-02T13:03:30.829Z,31.10
2018-05-02T13:05:58.826Z,30.98
2018-05-02T13:08:26.844Z,30.32
2018-05-02T13:10:54.808Z,29.36
2018-05-02T13:13:22.786Z,29.27
2018-05-02T13:15:50.842Z,29.70
2018-05-02T13:18:18.886Z,29.39
2018-05-02T13:20:46.924Z,28.65
2018-05-02T13:23:14.904Z,28.81
2018-05-02T13:25:42.941Z,29.10
2018-05-02T13:28:11.018Z,28.73
2018-05-02T13:30:38.983Z,28.77
2018-05-02T13:33:07.110Z,28.81
2018-05-02T13:35:35.488Z,28.47
2018-05-02T13:38:03.577Z,28.13
2018-05-02T13:40:32.155Z,28.20
2018-05-02T13:43:00.209Z,27.90
2018-05-02T13:45:28.211Z,27.82
2018-05-02T13:47:56.272Z,28.38
2018-05-02T13:50:24.477Z,27.33
2018-05-02T13:52:52.430Z,27.56
2018-05-02T13:55:20.539Z,27.61
2018-05-02T13:57:48.598Z,27.19
2018-05-02T14:00:16.629Z,27.24
2018-05-02T14:02:44.665Z,27.45
2018-05-02T14:05:12.711Z,27.76
2018-05-02T14:07:40.788Z,27.54
2018-05-02T14:10:08.958Z,27.28
2018-05-02T14:12:37.014Z,27.46
2018-05-02T14:15:05.298Z,27.31
2018-05-02T14:17:33.415Z,27.19
2018-05-02T14:20:01.460Z,26.68
2018-05-02T14:22:29.716Z,26.78
2018-05-02T14:24:57.749Z,26.63
2018-05-02T14:27:25.834Z,26.05
2018-05-02T14:29:53.885Z,26.06
2018-05-02T14:32:21.960Z,26.18
2018-05-02T14:34:49.960Z,25.94
2018-05-02T14:37:18.284Z,25.65
2018-05-02T14:39:46.320Z,25.97
2018-05-02T14:42:14.435Z,25.73
2018-05-02T14:44:42.488Z,25.67
2018-05-02T14:47:10.546Z,25.70
2018-05-02T14:49:38.654Z,25.89
2018-05-02T14:52:06.805Z,25.86
2018-05-02T14:54:34.952Z,26.01
2018-05-02T14:57:03.008Z,25.78
2018-05-02T14:59:31.015Z,25.74
2018-05-02T15:02:01.156Z,25.59
2018-05-02T15:04:29.188Z,25.43
2018-05-02T15:06:57.250Z,25.44
2018-05-02T15:09:25.341Z,25.91
2018-05-02T15:11:53.456Z,26.07
2018-05-02T15:14:21.610Z,25.25
2018-05-02T15:16:49.543Z,24.54
2018-05-02T15:19:17.539Z,24.33
2018-05-02T15:21:45.608Z,24.40
2018-05-02T15:24:13.598Z,24.34
2018-05-02T15:26:41.635Z,24.65
2018-05-02T15:29:09.641Z,24.21
2018-05-02T15:31:37.682Z,24.45
2018-05-02T15:34:05.821Z,24.77
2018-05-02T15:36:33.890Z,24.53
2018-05-02T15:39:02.449Z,24.39
2018-05-02T15:41:30.512Z,24.37
2018-05-02T15:43:58.629Z,23.95
2018-05-02T16:30:06.555Z,23.82
2018-05-02T16:32:34.613Z,23.54
2018-05-02T16:35:03.220Z,23.79
2018-05-02T16:37:31.252Z,24.13
2018-05-02T16:39:59.643Z,24.23
2018-05-02T16:42:27.699Z,24.18
2018-05-02T16:44:55.829Z,24.36
2018-05-02T16:47:23.888Z,24.47
2018-05-02T16:49:51.979Z,24.42
2018-05-02T16:52:19.992Z,24.36
2018-05-02T16:54:48.068Z,24.40
2018-05-02T16:57:16.186Z,24.43
2018-05-02T16:59:44.193Z,24.41
2018-05-02T17:02:12.296Z,24.28
2018-05-02T17:04:40.437Z,24.16
2018-05-02T17:07:08.647Z,23.67
2018-05-02T17:09:36.683Z,23.67
2018-05-02T17:12:04.749Z,22.57
2018-05-02T17:14:32.781Z,22.63
2018-05-02T17:17:00.841Z,22.39
2018-05-02T17:19:28.847Z,22.44
2018-05-02T17:21:57.044Z,22.57
2018-05-02T17:24:24.973Z,22.91
2018-05-02T17:26:53.106Z,22.83
2018-05-02T17:29:21.225Z,22.83
2018-05-02T17:31:49.423Z,22.48
2018-05-02T17:34:17.492Z,22.44
2018-05-02T17:36:45.532Z,22.72
2018-05-02T17:39:13.553Z,22.72
2018-05-02T17:41:42.101Z,22.12
2018-05-02T17:44:10.065Z,22.22
2018-05-02T17:46:38.081Z,22.27
2018-05-02T17:49:06.089Z,22.19
2018-05-02T17:51:34.099Z,22.37
2018-05-02T17:54:02.153Z,22.07
2018-05-02T17:56:30.158Z,22.17
2018-05-02T17:58:58.247Z,22.05
2018-05-02T18:01:26.296Z,22.04
2018-05-02T18:03:54.273Z,21.97
2018-05-02T18:06:22.270Z,21.65
2018-05-02T18:08:50.298Z,21.98
2018-05-02T18:11:18.278Z,21.40
2018-05-02T18:13:46.313Z,20.84
2018-05-02T18:16:14.377Z,19.88
2018-05-02T18:18:42.391Z,20.02
2018-05-02T18:21:10.617Z,19.57
2018-05-02T18:23:38.584Z,20.33
2018-05-02T18:26:06.635Z,19.75
2018-05-02T18:28:34.671Z,20.40
2018-05-02T18:31:02.837Z,20.49
2018-05-02T18:33:30.868Z,19.84
2018-05-02T18:35:58.840Z,19.55
2018-05-02T18:38:26.854Z,20.47
2018-05-02T18:40:54.835Z,20.81
2018-05-02T18:43:23.359Z,20.95
2018-05-02T18:45:51.377Z,20.95
2018-05-02T18:48:19.392Z,20.18
2018-05-02T18:50:47.595Z,19.52
2018-05-02T18:53:15.690Z,19.07
2018-05-02T18:55:43.681Z,18.78
2018-05-02T18:58:11.777Z,18.61
2018-05-02T19:00:39.739Z,18.50
2018-05-02T19:03:08.409Z,19.13
2018-05-02T19:05:36.429Z,19.59
2018-05-02T19:08:04.425Z,19.60
2018-05-02T19:10:32.492Z,19.70
2018-05-02T19:13:00.517Z,20.25
2018-05-02T19:15:28.656Z,19.94
2018-05-02T19:18:02.368Z,20.16
2018-05-02T19:20:37.026Z,20.40
2018-05-02T19:23:04.989Z,20.50
2018-05-02T19:25:40.353Z,20.59
2018-05-02T19:28:08.402Z,19.95
2018-05-02T19:30:36.439Z,20.09
2018-05-02T19:33:10.006Z,20.39
2018-05-02T19:35:38.172Z,20.52
2018-05-02T19:38:06.118Z,20.56
2018-05-02T19:40:39.697Z,20.53
2018-05-02T19:43:13.402Z,20.52
2018-05-02T19:45:42.055Z,20.49
2018-05-02T19:48:10.037Z,20.42
2018-05-02T19:50:38.044Z,20.44
2018-05-02T19:53:06.112Z,20.36
2018-05-02T19:55:34.212Z,20.32
2018-05-02T19:58:02.379Z,20.31
2018-05-02T20:00:35.985Z,19.25
2018-05-02T20:03:04.091Z,19.22
2018-05-02T20:05:32.072Z,19.45
2018-05-02T20:08:00.162Z,19.59
2018-05-02T20:10:33.823Z,19.33
2018-05-02T20:16:10.087Z,19.28
2018-05-02T20:18:38.106Z,19.39
2018-05-02T20:21:06.274Z,19.37
2018-05-02T20:23:34.301Z,19.07
2018-05-02T20:26:02.807Z,19.01
2018-05-02T20:28:30.833Z,18.92
2018-05-02T20:30:58.886Z,18.92
2018-05-02T20:33:27.009Z,18.87
2018-05-02T20:35:55.064Z,19.07
2018-05-02T20:38:23.086Z,19.11
2018-05-02T20:40:51.131Z,19.08
2018-05-02T20:43:19.128Z,19.03
2018-05-02T20:45:47.403Z,18.94
2018-05-02T20:48:15.364Z,18.96
2018-05-02T20:50:43.358Z,18.98
2018-05-02T20:53:11.385Z,18.37
2018-05-02T20:55:39.401Z,18.17
2018-05-02T20:58:07.418Z,18.05
2018-05-02T21:00:35.494Z,18.48
2018-05-02T21:03:03.489Z,18.52
2018-05-02T21:05:31.477Z,18.63
2018-05-02T21:07:59.491Z,18.56
2018-05-02T21:10:27.506Z,18.61
2018-05-02T21:12:55.536Z,18.64
2018-05-02T21:15:23.543Z,18.25
2018-05-02T21:17:51.653Z,18.16
2018-05-02T21:20:19.619Z,18.32
2018-05-02T21:22:47.604Z,18.55
2018-05-02T21:25:15.602Z,18.56
2018-05-02T21:27:43.610Z,18.39
2018-05-02T21:30:11.647Z,18.59
2018-05-02T21:32:39.665Z,18.50
2018-05-02T21:35:07.681Z,18.60
2018-05-02T21:37:35.698Z,17.96
2018-05-02T21:40:03.717Z,18.11
2018-05-02T21:42:31.841Z,18.03
2018-05-02T21:44:59.871Z,17.95
2018-05-02T21:47:28.304Z,18.11
2018-05-02T21:49:56.360Z,18.28
2018-05-02T21:52:24.359Z,18.34
2018-05-02T21:54:52.378Z,18.51
2018-05-02T21:57:20.405Z,18.26
2018-05-02T21:59:48.409Z,18.23
2018-05-02T22:02:16.497Z,18.43
2018-05-02T22:04:44.501Z,18.34
2018-05-02T22:07:12.510Z,18.35
2018-05-02T22:09:40.491Z,18.42
2018-05-02T22:12:08.475Z,18.39
2018-05-02T22:14:36.479Z,17.93
2018-05-02T22:17:04.514Z,18.13
2018-05-02T22:19:32.526Z,17.66
2018-05-02T22:22:00.563Z,18.09
2018-05-02T22:24:28.523Z,18.24
2018-05-02T22:26:56.561Z,18.31
2018-05-02T22:29:24.494Z,18.36
2018-05-02T22:31:52.444Z,18.28
2018-05-02T22:34:20.419Z,17.98
2018-05-02T22:36:48.467Z,17.43
2018-05-02T22:39:16.518Z,17.64
2018-05-02T22:41:44.543Z,17.94
2018-05-02T22:44:12.583Z,17.93
2018-05-02T22:46:40.632Z,18.04
2018-05-02T22:49:08.798Z,18.02
2018-05-02T22:51:36.794Z,18.14
2018-05-02T22:54:04.935Z,18.15
2018-05-02T22:56:32.962Z,18.13
2018-05-02T22:59:00.987Z,18.20
2018-05-02T23:01:29.040Z,18.07
2018-05-02T23:03:57.034Z,17.83
2018-05-02T23:06:25.026Z,17.83
2018-05-02T23:08:53.047Z,17.21
2018-05-02T23:11:20.969Z,16.78
2018-05-02T23:13:48.996Z,17.02
2018-05-02T23:16:16.942Z,16.54
2018-05-02T23:18:44.977Z,17.43
2018-05-02T23:21:13.025Z,17.57
2018-05-02T23:23:41.041Z,17.59
2018-05-02T23:26:09.073Z,17.69
2018-05-02T23:28:37.031Z,17.67
2018-05-02T23:31:05.050Z,17.61
2018-05-02T23:33:33.053Z,17.36
2018-05-02T23:36:01.088Z,17.50
2018-05-02T23:38:29.097Z,17.34
2018-05-02T23:40:57.098Z,17.21
2018-05-02T23:43:25.144Z,17.33
2018-05-02T23:45:53.175Z,16.74
2018-05-02T23:48:21.122Z,16.58
2018-05-02T23:50:49.600Z,16.15
2018-05-02T23:53:17.649Z,16.86
2018-05-02T23:55:45.704Z,17.08
2018-05-02T23:58:13.743Z,17.08
